Time;durP1;ratioP1;P1;durP2;ratioP2;P2;SDS_P1;SDS_P2;PMS_P1;PMS_P2;Temp;Humidity;BMP_temperature;BMP_pressure;BME280_temperature;BME280_humidity;BME280_pressure;Samples;Min_cycle;Max_cycle;Signal;HPM_P1;HPM_P2
2024/03/24 00:01:31;;;;;;;7.03;1.95;;;6.70;99.90;;;;;;4949039;28;20050;-60
2024/03/24 00:03:56;;;;;;;5.85;1.23;;;6.70;99.90;;;;;;4949266;28;20059;-60
2024/03/24 00:06:22;;;;;;;3.60;1.10;;;6.70;99.90;;;;;;4939889;28;20054;-61
2024/03/24 00:08:48;;;;;;;6.90;1.80;;;6.60;99.90;;;;;;4946825;28;20054;-58
2024/03/24 00:11:14;;;;;;;3.08;1.27;;;6.60;99.90;;;;;;4942942;28;20109;-61
2024/03/24 00:13:40;;;;;;;3.58;1.55;;;6.60;99.90;;;;;;4941530;28;20095;-59
2024/03/24 00:16:08;;;;;;;4.72;1.33;;;6.60;99.90;;;;;;4931207;28;20083;-61
2024/03/24 00:18:34;;;;;;;3.35;0.98;;;6.60;99.90;;;;;;4944455;28;20059;-61
2024/03/24 00:20:59;;;;;;;4.00;1.08;;;6.60;99.90;;;;;;4937905;28;20058;-60
2024/03/24 00:23:25;;;;;;;3.53;1.48;;;6.50;99.90;;;;;;4936991;28;20059;-61
2024/03/24 00:25:51;;;;;;;3.03;1.20;;;6.50;99.90;;;;;;4943446;28;20062;-60
2024/03/24 00:28:17;;;;;;;3.65;1.35;;;6.50;99.90;;;;;;4942203;28;20520;-60
2024/03/24 00:30:42;;;;;;;3.63;1.38;;;6.50;99.90;;;;;;4954269;28;20436;-60
2024/03/24 00:33:08;;;;;;;4.68;1.20;;;6.50;99.90;;;;;;4951512;28;20416;-61
2024/03/24 00:35:34;;;;;;;2.72;1.30;;;6.50;99.90;;;;;;4945245;28;20082;-59
2024/03/24 00:38:00;;;;;;;4.47;1.10;;;6.50;99.90;;;;;;4939999;28;20040;-61
2024/03/24 00:40:25;;;;;;;1.80;1.05;;;6.40;99.90;;;;;;4960109;28;20142;-61
2024/03/24 00:42:51;;;;;;;1.63;0.95;;;6.40;99.90;;;;;;4937735;28;20043;-59
2024/03/24 00:45:17;;;;;;;2.13;1.13;;;6.40;99.90;;;;;;4946487;28;20047;-59
2024/03/24 00:47:42;;;;;;;2.75;0.90;;;6.30;99.90;;;;;;4945748;28;20046;-61
2024/03/24 00:50:09;;;;;;;1.63;1.00;;;6.30;99.90;;;;;;4946157;28;20081;-61
2024/03/24 00:52:35;;;;;;;2.35;1.15;;;6.30;99.90;;;;;;4942145;28;20051;-60
2024/03/24 00:55:01;;;;;;;2.97;0.80;;;6.30;99.90;;;;;;4939442;28;20420;-60
2024/03/24 00:57:27;;;;;;;2.58;0.82;;;6.40;99.90;;;;;;4937543;28;20043;-61
2024/03/24 00:59:53;;;;;;;2.15;0.88;;;6.40;99.90;;;;;;4941875;28;20142;-60
2024/03/24 01:02:18;;;;;;;1.88;1.00;;;6.30;99.90;;;;;;4952392;28;20069;-60
2024/03/24 01:04:44;;;;;;;5.28;1.08;;;6.30;99.90;;;;;;4942178;28;20295;-61
2024/03/24 01:07:10;;;;;;;3.15;1.35;;;6.30;99.90;;;;;;4938480;28;20043;-61
2024/03/24 01:09:36;;;;;;;0.70;0.70;;;6.30;99.90;;;;;;4943665;28;20054;-61
2024/03/24 01:12:01;;;;;;;2.88;1.17;;;6.20;99.90;;;;;;4936992;28;20047;-62
2024/03/24 01:14:28;;;;;;;2.08;0.80;;;6.10;99.90;;;;;;4943174;28;20065;-60
2024/03/24 01:16:54;;;;;;;2.45;1.00;;;6.00;99.90;;;;;;4936103;28;20055;-62
2024/03/24 01:19:20;;;;;;;3.95;1.15;;;6.00;99.90;;;;;;4946458;28;20198;-61
2024/03/24 01:21:46;;;;;;;1.48;0.90;;;6.00;99.90;;;;;;4947042;28;20082;-61
2024/03/24 01:24:12;;;;;;;2.50;0.90;;;6.00;99.90;;;;;;4944187;28;20058;-61
2024/03/24 01:26:37;;;;;;;2.50;1.42;;;6.00;99.90;;;;;;4944563;28;20050;-61
2024/03/24 01:29:04;;;;;;;1.48;0.98;;;6.00;99.90;;;;;;4939171;28;20058;-61
2024/03/24 01:31:30;;;;;;;1.80;0.90;;;5.90;99.90;;;;;;4940709;28;20043;-61
2024/03/24 01:33:55;;;;;;;3.50;0.80;;;5.80;99.90;;;;;;4945342;28;20070;-60
2024/03/24 01:36:21;;;;;;;2.38;1.30;;;5.80;99.90;;;;;;4947032;28;20054;-60
2024/03/24 01:38:47;;;;;;;2.20;1.20;;;5.90;99.90;;;;;;4942833;28;20054;-62
2024/03/24 01:41:13;;;;;;;2.33;0.75;;;5.90;99.90;;;;;;4936015;28;20047;-61
2024/03/24 01:43:38;;;;;;;2.63;0.93;;;6.00;99.90;;;;;;4944244;29;20412;-61
2024/03/24 01:46:04;;;;;;;3.97;1.20;;;6.10;99.90;;;;;;4924478;28;20555;-60
2024/03/24 01:48:30;;;;;;;3.58;0.95;;;6.10;99.90;;;;;;4944538;28;20613;-61
2024/03/24 01:50:57;;;;;;;0.95;0.82;;;6.10;99.90;;;;;;4938798;28;20441;-61
2024/03/24 01:53:23;;;;;;;3.72;1.17;;;6.10;99.90;;;;;;4952791;28;20047;-61
2024/03/24 01:55:49;;;;;;;5.88;1.17;;;6.10;99.90;;;;;;4932951;28;20138;-60
2024/03/24 01:58:15;;;;;;;1.50;0.90;;;6.20;99.90;;;;;;4943232;28;20055;-60
2024/03/24 02:00:41;;;;;;;3.33;0.82;;;6.10;99.90;;;;;;4942491;28;20078;-61
2024/03/24 02:03:06;;;;;;;5.18;1.10;;;6.20;99.90;;;;;;4945467;28;20051;-61
2024/03/24 02:05:32;;;;;;;1.33;0.90;;;6.20;99.90;;;;;;4941523;28;20051;-61
2024/03/24 02:07:58;;;;;;;1.65;1.08;;;6.20;99.90;;;;;;4941002;28;20039;-61
2024/03/24 02:10:24;;;;;;;2.47;1.20;;;6.20;99.90;;;;;;4939526;28;20050;-61
2024/03/24 02:12:50;;;;;;;2.05;0.95;;;6.20;99.90;;;;;;4938150;28;20134;-60
2024/03/24 02:15:15;;;;;;;3.40;1.20;;;6.10;99.90;;;;;;4928080;28;20047;-61
2024/03/24 02:17:41;;;;;;;3.50;1.40;;;6.20;99.90;;;;;;4941210;28;20102;-61
2024/03/24 02:20:09;;;;;;;2.75;1.02;;;6.30;99.90;;;;;;4937536;28;20639;-61
2024/03/24 02:22:37;;;;;;;3.83;1.00;;;6.30;99.90;;;;;;4937912;28;20051;-61
2024/03/24 02:25:04;;;;;;;3.95;1.33;;;6.30;99.90;;;;;;4965794;28;20061;-61
2024/03/24 02:27:30;;;;;;;5.13;1.27;;;6.40;99.90;;;;;;4935880;28;20616;-61
2024/03/24 02:29:56;;;;;;;4.15;1.13;;;6.40;99.90;;;;;;4933410;28;20043;-62
2024/03/24 02:32:22;;;;;;;2.90;0.95;;;6.30;99.90;;;;;;4937498;28;20057;-61
2024/03/24 02:34:48;;;;;;;2.95;1.10;;;6.30;99.90;;;;;;4942632;28;20087;-61
2024/03/24 02:37:14;;;;;;;4.10;1.33;;;6.30;99.90;;;;;;4937550;28;20059;-61
2024/03/24 02:39:39;;;;;;;4.20;1.30;;;6.30;99.90;;;;;;4938107;28;20083;-61
2024/03/24 02:42:05;;;;;;;2.50;1.10;;;6.40;99.90;;;;;;4936531;28;20085;-61
2024/03/24 02:44:32;;;;;;;4.03;1.15;;;6.30;99.90;;;;;;4951039;28;20055;-62
2024/03/24 02:46:57;;;;;;;3.17;1.05;;;6.20;99.90;;;;;;4954515;28;20086;-60
2024/03/24 02:49:23;;;;;;;2.15;0.98;;;6.10;99.90;;;;;;4942138;28;20046;-59
2024/03/24 02:51:49;;;;;;;3.58;1.10;;;6.10;99.90;;;;;;4943642;28;20051;-61
2024/03/24 02:54:14;;;;;;;1.40;0.82;;;6.00;99.90;;;;;;4940182;28;20050;-62
2024/03/24 02:56:40;;;;;;;2.53;1.10;;;5.90;99.90;;;;;;4941666;28;20055;-59
2024/03/24 02:59:06;;;;;;;3.10;1.02;;;5.90;99.90;;;;;;4942371;28;20097;-61
2024/03/24 03:01:32;;;;;;;2.45;1.10;;;5.90;99.90;;;;;;4942598;28;20056;-61
2024/03/24 03:03:58;;;;;;;3.10;0.95;;;5.80;99.90;;;;;;4945485;28;20145;-61
2024/03/24 03:06:24;;;;;;;3.42;1.15;;;5.80;99.90;;;;;;4947762;28;20062;-61
2024/03/24 03:08:49;;;;;;;1.92;0.88;;;5.70;99.90;;;;;;4949087;28;20051;-61
2024/03/24 03:11:15;;;;;;;3.15;0.80;;;5.80;99.90;;;;;;4940345;28;20113;-59
2024/03/24 03:13:41;;;;;;;4.57;1.02;;;5.70;99.90;;;;;;4943216;28;20499;-61
2024/03/24 03:16:07;;;;;;;2.83;0.90;;;5.70;99.90;;;;;;4943238;28;20055;-60
2024/03/24 03:18:32;;;;;;;5.72;1.17;;;5.60;99.90;;;;;;4944319;28;20062;-61
2024/03/24 03:20:58;;;;;;;4.85;1.10;;;5.60;99.90;;;;;;4951425;28;20074;-60
2024/03/24 03:23:24;;;;;;;4.03;1.10;;;5.60;99.90;;;;;;4938756;28;20042;-60
2024/03/24 03:25:50;;;;;;;2.60;1.00;;;5.60;99.90;;;;;;4949902;28;20050;-61
2024/03/24 03:28:17;;;;;;;4.90;1.42;;;5.60;99.90;;;;;;4946512;28;20583;-61
2024/03/24 03:30:44;;;;;;;4.00;0.98;;;5.70;99.90;;;;;;4940703;28;20054;-61
2024/03/24 03:33:09;;;;;;;5.00;1.10;;;5.60;99.90;;;;;;4941583;28;20058;-61
2024/03/24 03:35:35;;;;;;;0.80;0.75;;;5.70;99.90;;;;;;4953409;28;20051;-61
2024/03/24 03:38:01;;;;;;;2.05;1.02;;;5.70;99.90;;;;;;4942609;28;20062;-61
2024/03/24 03:40:27;;;;;;;3.42;0.82;;;5.60;99.90;;;;;;4941869;29;20054;-61
2024/03/24 03:42:52;;;;;;;3.15;0.85;;;5.60;99.90;;;;;;4943555;28;20047;-61
2024/03/24 03:45:18;;;;;;;2.15;0.95;;;5.60;99.90;;;;;;4932094;28;20058;-61
2024/03/24 03:47:44;;;;;;;2.97;0.90;;;5.60;99.90;;;;;;4942046;28;20062;-61
2024/03/24 03:50:17;;;;;;;3.47;0.88;;;5.50;99.90;;;;;;4949129;28;20054;-60
2024/03/24 03:52:47;;;;;;;1.17;1.02;;;5.50;99.90;;;;;;4944330;28;20451;-61
2024/03/24 03:55:17;;;;;;;1.85;0.90;;;5.50;99.90;;;;;;4943818;28;20062;-61
2024/03/24 03:57:43;;;;;;;2.95;1.27;;;5.50;99.90;;;;;;4935596;28;20051;-61
2024/03/24 04:00:13;;;;;;;2.08;0.90;;;5.50;99.90;;;;;;4939051;28;20051;-61
2024/03/24 04:02:42;;;;;;;0.73;0.70;;;5.50;99.90;;;;;;4944480;28;20460;-61
2024/03/24 04:05:09;;;;;;;1.33;0.77;;;5.50;99.90;;;;;;4946929;28;20053;-61
2024/03/24 04:07:36;;;;;;;3.30;0.90;;;5.50;99.90;;;;;;4941234;28;20106;-60
2024/03/24 04:10:04;;;;;;;4.00;1.08;;;5.50;99.90;;;;;;4945178;28;20473;-61
2024/03/24 04:12:30;;;;;;;2.38;1.02;;;5.40;99.90;;;;;;4940496;28;20054;-61
2024/03/24 04:15:01;;;;;;;1.67;1.10;;;5.40;99.90;;;;;;4939414;28;20071;-61
2024/03/24 04:17:28;;;;;;;3.45;0.90;;;5.40;99.90;;;;;;4944682;28;20098;-61
2024/03/24 04:19:54;;;;;;;1.75;0.80;;;5.40;99.90;;;;;;4940998;28;20054;-61
2024/03/24 04:22:21;;;;;;;5.13;1.00;;;5.40;99.90;;;;;;4946496;28;20073;-61
2024/03/24 04:24:47;;;;;;;1.88;1.05;;;5.40;99.90;;;;;;4942716;28;20055;-60
2024/03/24 04:27:13;;;;;;;1.60;0.82;;;5.40;99.90;;;;;;4941456;28;20059;-61
2024/03/24 04:29:39;;;;;;;2.25;0.80;;;5.50;99.90;;;;;;4945296;28;20069;-61
2024/03/24 04:32:05;;;;;;;1.00;0.70;;;5.60;99.90;;;;;;4938543;28;20534;-61
2024/03/24 04:34:31;;;;;;;4.03;0.90;;;5.60;99.90;;;;;;4938922;29;20114;-61
2024/03/24 04:36:57;;;;;;;1.35;0.70;;;5.70;99.90;;;;;;4941427;28;20054;-60
2024/03/24 04:39:24;;;;;;;1.50;0.80;;;5.80;99.90;;;;;;4955098;28;20055;-61
2024/03/24 04:41:50;;;;;;;2.40;0.65;;;5.80;99.90;;;;;;4956202;28;20062;-61
2024/03/24 04:44:15;;;;;;;0.80;0.70;;;5.90;99.90;;;;;;4947957;28;20086;-61
2024/03/24 04:46:41;;;;;;;2.17;0.70;;;5.90;99.90;;;;;;4940274;28;20062;-61
2024/03/24 04:49:07;;;;;;;2.25;0.88;;;5.90;99.90;;;;;;4956203;28;20598;-61
2024/03/24 04:51:33;;;;;;;0.73;0.70;;;5.90;99.90;;;;;;4939660;28;20444;-60
2024/03/24 04:54:00;;;;;;;3.15;0.70;;;6.00;99.90;;;;;;4939128;28;20048;-61
2024/03/24 04:56:26;;;;;;;3.67;0.90;;;6.00;99.90;;;;;;4954276;28;20059;-61
2024/03/24 04:58:51;;;;;;;2.38;0.60;;;6.00;99.90;;;;;;4942910;28;20057;-61
2024/03/24 05:01:18;;;;;;;2.45;0.73;;;6.00;99.90;;;;;;4940776;28;20074;-61
2024/03/24 05:03:44;;;;;;;3.28;0.70;;;6.00;99.90;;;;;;4945715;28;20094;-61
2024/03/24 05:06:09;;;;;;;3.92;1.40;;;5.90;99.90;;;;;;4941360;28;20067;-61
2024/03/24 05:08:37;;;;;;;2.33;0.63;;;5.80;99.90;;;;;;4942677;28;20039;-61
2024/03/24 05:11:05;;;;;;;0.60;0.57;;;5.60;99.90;;;;;;4938482;28;20575;-61
2024/03/24 05:13:32;;;;;;;2.25;0.77;;;5.40;99.90;;;;;;4939339;28;20506;-61
2024/03/24 05:15:58;;;;;;;1.58;0.90;;;5.30;99.90;;;;;;4940523;28;20051;-61
2024/03/24 05:18:25;;;;;;;1.27;0.75;;;5.20;99.90;;;;;;4941443;28;20048;-61
2024/03/24 05:20:50;;;;;;;0.90;0.73;;;5.20;99.90;;;;;;4939215;28;20051;-61
2024/03/24 05:23:19;;;;;;;4.00;0.88;;;5.20;99.90;;;;;;4937630;28;20062;-61
2024/03/24 05:25:52;;;;;;;0.80;0.63;;;5.20;99.90;;;;;;4957581;28;20054;-61
2024/03/24 05:28:18;;;;;;;2.65;0.60;;;5.30;99.90;;;;;;4939613;28;20054;-61
2024/03/24 05:30:46;;;;;;;1.98;0.95;;;5.40;99.90;;;;;;4941625;28;20645;-61
2024/03/24 05:33:11;;;;;;;2.00;0.70;;;5.50;99.90;;;;;;4952847;28;20058;-61
2024/03/24 05:35:37;;;;;;;1.98;0.70;;;5.60;99.90;;;;;;4942151;28;20050;-61
2024/03/24 05:38:03;;;;;;;2.28;0.90;;;5.60;99.90;;;;;;4931376;28;20503;-60
2024/03/24 05:40:29;;;;;;;1.23;0.70;;;5.60;99.90;;;;;;4942458;28;20058;-59
2024/03/24 05:42:55;;;;;;;1.38;0.75;;;5.60;99.90;;;;;;4937065;28;20063;-62
2024/03/24 05:45:21;;;;;;;2.75;0.85;;;5.60;99.90;;;;;;4937892;28;20052;-61
2024/03/24 05:47:48;;;;;;;1.33;0.70;;;5.70;99.90;;;;;;4936406;28;20105;-60
2024/03/24 05:50:14;;;;;;;0.68;0.60;;;5.70;99.90;;;;;;4941041;28;20058;-61
2024/03/24 05:52:42;;;;;;;2.25;0.80;;;5.70;99.90;;;;;;4946202;28;20047;-60
2024/03/24 05:55:09;;;;;;;2.20;0.55;;;5.70;99.90;;;;;;4939393;29;20055;-61
2024/03/24 05:57:35;;;;;;;1.17;0.80;;;5.70;99.90;;;;;;4944490;28;20067;-61
2024/03/24 06:00:03;;;;;;;3.50;0.95;;;5.80;99.90;;;;;;4941227;28;20118;-60
2024/03/24 06:02:30;;;;;;;1.40;0.95;;;5.90;99.90;;;;;;4941729;28;20054;-60
2024/03/24 06:04:55;;;;;;;2.00;1.20;;;5.90;99.90;;;;;;4938759;28;20055;-61
2024/03/24 06:07:25;;;;;;;2.63;0.75;;;5.90;99.90;;;;;;4934744;28;20058;-61
2024/03/24 06:09:52;;;;;;;2.97;0.82;;;5.90;99.90;;;;;;4939290;28;20058;-61
2024/03/24 06:12:17;;;;;;;3.20;1.40;;;5.90;99.90;;;;;;4948465;28;20555;-60
2024/03/24 06:14:43;;;;;;;2.10;1.55;;;5.90;99.90;;;;;;4942860;28;20051;-60
2024/03/24 06:17:09;;;;;;;1.85;0.82;;;5.90;99.90;;;;;;4942420;28;20055;-60
2024/03/24 06:19:34;;;;;;;3.55;1.65;;;5.90;99.90;;;;;;4938432;28;20448;-61
2024/03/24 06:22:00;;;;;;;2.60;0.90;;;6.00;99.90;;;;;;4939367;28;20057;-61
2024/03/24 06:24:26;;;;;;;1.98;0.85;;;6.10;99.90;;;;;;4943321;28;20090;-61
2024/03/24 06:26:53;;;;;;;1.95;0.80;;;6.10;99.90;;;;;;4938947;28;20043;-61
2024/03/24 06:29:19;;;;;;;3.97;0.95;;;6.10;99.90;;;;;;4939473;28;20048;-61
2024/03/24 06:31:44;;;;;;;2.08;0.75;;;6.00;99.90;;;;;;4943252;28;20125;-60
2024/03/24 06:34:10;;;;;;;2.88;1.30;;;5.80;99.90;;;;;;4939670;28;20153;-60
2024/03/24 06:36:41;;;;;;;2.50;0.98;;;5.80;99.90;;;;;;4942447;28;20062;-60
2024/03/24 06:39:08;;;;;;;2.45;0.95;;;6.00;99.90;;;;;;4942169;28;20063;-61
2024/03/24 06:41:38;;;;;;;1.63;0.70;;;6.20;99.90;;;;;;4939649;28;20058;-60
2024/03/24 06:44:12;;;;;;;;;;;6.20;99.90;;;;;;4942950;28;20059;-60
2024/03/24 06:46:39;;;;;;;3.22;1.50;;;6.20;99.90;;;;;;4944879;28;19922;-61
2024/03/24 06:49:05;;;;;;;2.47;0.82;;;6.20;99.90;;;;;;4944387;28;20059;-61
2024/03/24 06:51:31;;;;;;;6.97;1.33;;;6.20;99.90;;;;;;4947517;28;20055;-61
2024/03/24 06:53:56;;;;;;;5.68;1.20;;;6.20;99.90;;;;;;4942755;28;20072;-62
2024/03/24 06:56:22;;;;;;;1.52;0.93;;;6.20;99.90;;;;;;4960076;28;20707;-61
2024/03/24 06:58:48;;;;;;;3.97;0.90;;;6.30;99.90;;;;;;4939517;28;20129;-61
2024/03/24 07:01:14;;;;;;;2.83;1.05;;;6.30;99.90;;;;;;4939529;28;20067;-61
2024/03/24 07:03:39;;;;;;;3.95;1.27;;;6.30;99.90;;;;;;4945233;28;20067;-60
2024/03/24 07:06:06;;;;;;;3.22;1.20;;;6.40;99.90;;;;;;4942395;28;20078;-61
2024/03/24 07:08:32;;;;;;;12.32;1.75;;;6.40;99.90;;;;;;4940462;28;20062;-60
2024/03/24 07:10:57;;;;;;;4.03;1.15;;;6.50;99.90;;;;;;4959950;28;20043;-61
2024/03/24 07:13:23;;;;;;;3.72;1.10;;;6.70;99.90;;;;;;4944481;28;20054;-60
2024/03/24 07:15:49;;;;;;;3.00;1.15;;;6.70;99.90;;;;;;4942727;28;20058;-60
2024/03/24 07:18:15;;;;;;;6.85;1.00;;;6.80;99.90;;;;;;4942100;29;20067;-60
2024/03/24 07:20:41;;;;;;;6.43;1.60;;;6.80;99.90;;;;;;4945761;28;20094;-61
2024/03/24 07:23:06;;;;;;;3.20;1.08;;;6.80;99.90;;;;;;4947841;28;20175;-61
2024/03/24 07:25:32;;;;;;;2.92;1.23;;;6.80;99.90;;;;;;4939779;28;20059;-61
2024/03/24 07:27:58;;;;;;;5.13;1.20;;;6.90;99.90;;;;;;4942471;28;20043;-60
2024/03/24 07:30:24;;;;;;;2.40;0.85;;;6.90;99.90;;;;;;4940456;28;20058;-60
2024/03/24 07:32:49;;;;;;;5.20;1.20;;;6.90;99.90;;;;;;4944358;28;20063;-61
2024/03/24 07:35:15;;;;;;;3.70;1.00;;;6.80;99.90;;;;;;4938407;28;20074;-61
2024/03/24 07:37:41;;;;;;;5.30;1.10;;;6.90;99.90;;;;;;4938625;28;20480;-60
2024/03/24 07:40:07;;;;;;;3.95;1.30;;;7.10;99.90;;;;;;4944074;28;20082;-61
2024/03/24 07:42:34;;;;;;;4.72;1.45;;;7.30;99.90;;;;;;4943120;28;20114;-59
2024/03/24 07:45:00;;;;;;;2.95;1.25;;;7.40;99.90;;;;;;4941611;28;20051;-61
2024/03/24 07:47:26;;;;;;;2.83;1.15;;;7.70;99.90;;;;;;4940204;28;20058;-61
2024/03/24 07:49:53;;;;;;;2.95;1.00;;;7.90;99.90;;;;;;4944753;28;20102;-59
2024/03/24 07:52:19;;;;;;;2.60;1.10;;;8.10;99.90;;;;;;4943399;28;20098;-61
2024/03/24 07:54:44;;;;;;;2.40;0.80;;;8.10;99.90;;;;;;4938000;28;20059;-61
2024/03/24 07:57:10;;;;;;;6.00;1.27;;;8.30;99.90;;;;;;4945538;28;20066;-61
2024/03/24 07:59:36;;;;;;;7.72;1.40;;;8.30;99.90;;;;;;4941301;28;20129;-61
2024/03/24 08:02:02;;;;;;;2.08;0.90;;;8.30;99.90;;;;;;4956860;28;20059;-61
2024/03/24 08:04:28;;;;;;;4.47;0.90;;;8.30;99.90;;;;;;4944158;28;20059;-59
2024/03/24 08:06:53;;;;;;;3.65;1.10;;;8.40;99.90;;;;;;4946257;28;20051;-62
2024/03/24 08:09:19;;;;;;;3.40;1.00;;;8.70;99.90;;;;;;4946936;28;20069;-62
2024/03/24 08:11:45;;;;;;;1.95;1.42;;;8.90;99.90;;;;;;4951891;28;20047;-62
2024/03/24 08:14:11;;;;;;;2.17;0.90;;;9.10;99.90;;;;;;4936715;28;20054;-61
2024/03/24 08:16:37;;;;;;;4.97;1.30;;;9.40;99.90;;;;;;4937705;28;20094;-62
2024/03/24 08:19:03;;;;;;;3.53;1.65;;;9.30;99.90;;;;;;4942633;28;20062;-62
2024/03/24 08:21:30;;;;;;;5.53;1.15;;;9.20;99.90;;;;;;4938472;28;20130;-62
2024/03/24 08:23:56;;;;;;;4.32;1.08;;;8.80;99.90;;;;;;4936825;28;20504;-62
2024/03/24 08:26:22;;;;;;;3.95;0.90;;;8.60;99.90;;;;;;4940462;28;20098;-61
2024/03/24 08:28:47;;;;;;;2.83;1.08;;;8.40;99.90;;;;;;4940268;28;20551;-61
2024/03/24 08:31:13;;;;;;;4.93;0.98;;;8.40;99.90;;;;;;4942276;29;20083;-63
2024/03/24 08:33:39;;;;;;;4.40;1.20;;;8.30;99.90;;;;;;4948034;28;20058;-62
2024/03/24 08:36:07;;;;;;;3.25;1.58;;;8.20;99.90;;;;;;4934957;28;20066;-59
2024/03/24 08:38:34;;;;;;;6.57;1.50;;;8.00;99.90;;;;;;4943128;28;20058;-62
2024/03/24 08:40:59;;;;;;;4.63;1.42;;;7.90;99.90;;;;;;4941670;28;20120;-62
2024/03/24 08:43:25;;;;;;;3.38;1.23;;;7.90;99.90;;;;;;4952621;28;20043;-62
2024/03/24 08:45:51;;;;;;;2.85;1.23;;;7.80;99.90;;;;;;4939335;28;20057;-60
2024/03/24 08:48:17;;;;;;;5.50;1.50;;;7.90;99.90;;;;;;4942464;28;20074;-61
2024/03/24 08:50:43;;;;;;;3.58;1.05;;;8.00;99.90;;;;;;4945762;28;20138;-61
2024/03/24 08:53:08;;;;;;;2.25;0.90;;;8.20;99.90;;;;;;4939979;28;20582;-62
2024/03/24 08:55:34;;;;;;;2.13;1.00;;;8.20;99.90;;;;;;4946966;28;20141;-61
2024/03/24 08:58:00;;;;;;;3.95;1.55;;;8.20;99.90;;;;;;4954376;28;20058;-61
2024/03/24 09:00:25;;;;;;;4.30;1.48;;;8.20;99.90;;;;;;4938337;28;20070;-62
2024/03/24 09:02:51;;;;;;;3.72;1.42;;;8.40;99.90;;;;;;4944653;28;20558;-62
2024/03/24 09:05:17;;;;;;;2.50;0.90;;;8.40;99.90;;;;;;4946819;28;20558;-61
2024/03/24 09:07:43;;;;;;;3.50;1.10;;;8.40;99.90;;;;;;4945337;28;20052;-62
2024/03/24 09:10:08;;;;;;;4.75;1.00;;;8.60;99.90;;;;;;4953593;28;20051;-62
2024/03/24 09:12:34;;;;;;;4.35;0.80;;;8.70;99.90;;;;;;4941740;28;20146;-60
2024/03/24 09:15:00;;;;;;;4.05;1.10;;;8.60;99.90;;;;;;4941776;28;20047;-61
2024/03/24 09:17:26;;;;;;;4.32;1.00;;;8.70;99.90;;;;;;4941301;28;20062;-61
2024/03/24 09:19:52;;;;;;;6.20;1.20;;;8.60;99.90;;;;;;4941399;28;20058;-61
2024/03/24 09:22:18;;;;;;;2.65;1.20;;;8.70;99.90;;;;;;4939770;28;20408;-62
2024/03/24 09:24:44;;;;;;;1.17;0.75;;;8.90;99.90;;;;;;4947372;28;20058;-62
2024/03/24 09:27:10;;;;;;;5.47;1.17;;;8.80;99.90;;;;;;4946309;28;20055;-62
2024/03/24 09:29:36;;;;;;;2.63;1.05;;;8.90;99.90;;;;;;4936355;28;20499;-62
2024/03/24 09:32:01;;;;;;;5.57;1.58;;;9.00;99.90;;;;;;4954754;28;20057;-62
2024/03/24 09:34:28;;;;;;;4.63;1.60;;;8.90;99.90;;;;;;4942672;28;20070;-62
2024/03/24 09:36:53;;;;;;;4.38;0.82;;;8.90;99.90;;;;;;4940258;28;20050;-61
2024/03/24 09:39:19;;;;;;;3.40;1.13;;;8.90;99.90;;;;;;4941582;29;20069;-61
2024/03/24 09:41:46;;;;;;;4.53;1.17;;;9.00;99.90;;;;;;4947055;28;20094;-62
2024/03/24 09:44:13;;;;;;;3.40;1.35;;;9.30;99.90;;;;;;4940369;28;20414;-62
2024/03/24 09:46:42;;;;;;;4.28;0.90;;;9.30;99.90;;;;;;4955089;28;20085;-61
2024/03/24 09:49:15;;;;;;;3.70;1.20;;;9.40;99.90;;;;;;4946793;28;20047;-62
2024/03/24 09:51:42;;;;;;;2.85;1.30;;;9.40;99.90;;;;;;4934332;28;20058;-63
2024/03/24 09:54:12;;;;;;;4.13;1.65;;;9.70;99.90;;;;;;4941258;28;20403;-62
2024/03/24 09:56:39;;;;;;;;;;;9.70;99.90;;;;;;4953531;28;20060;-62
2024/03/24 09:59:05;;;;;;;2.17;0.95;;;9.70;99.90;;;;;;4950728;28;20501;-62
2024/03/24 10:01:32;;;;;;;3.80;1.20;;;9.60;99.90;;;;;;4944566;28;20047;-62
2024/03/24 10:03:59;;;;;;;1.67;0.95;;;9.50;99.90;;;;;;4943682;28;20054;-62
2024/03/24 10:06:25;;;;;;;2.60;1.45;;;9.30;99.90;;;;;;4945222;28;20062;-59
2024/03/24 10:08:52;;;;;;;3.72;1.50;;;9.20;99.90;;;;;;4942823;28;20043;-61
2024/03/24 10:11:34;;;;;;;8.02;2.30;;;9.20;99.90;;;;;;4945311;28;20051;-62
2024/03/24 10:14:07;;;;;;;3.58;1.65;;;9.20;99.90;;;;;;4943582;28;20098;-62
2024/03/24 10:16:33;;;;;;;3.72;1.17;;;9.20;99.90;;;;;;4950376;28;20050;-62
2024/03/24 10:19:12;;;;;;;2.78;0.95;;;9.20;99.90;;;;;;4944138;28;20046;-62
2024/03/24 10:21:39;;;;;;;4.15;1.20;;;9.30;99.90;;;;;;4941124;28;20140;-62
2024/03/24 10:24:06;;;;;;;2.88;1.05;;;9.40;99.90;;;;;;4959592;28;20126;-62
2024/03/24 10:26:36;;;;;;;5.22;1.20;;;9.30;99.90;;;;;;4942719;28;20110;-63
2024/03/24 10:29:05;;;;;;;3.63;1.00;;;9.20;99.90;;;;;;4969165;28;20055;-62
2024/03/24 10:31:38;;;;;;;4.67;1.23;;;9.10;99.90;;;;;;4942020;28;20054;-60
2024/03/24 10:34:03;;;;;;;6.15;1.15;;;9.20;99.90;;;;;;4944148;28;20660;-60
2024/03/24 10:36:37;;;;;;;5.38;1.25;;;9.20;99.90;;;;;;4941583;28;20050;-62
2024/03/24 10:39:06;;;;;;;3.13;0.82;;;9.30;99.90;;;;;;4961718;28;20071;-62
2024/03/24 10:41:34;;;;;;;3.70;1.15;;;9.30;99.90;;;;;;4951224;28;20043;-62
2024/03/24 10:44:02;;;;;;;4.43;1.20;;;9.40;99.90;;;;;;4946755;28;20055;-62
2024/03/24 10:46:33;;;;;;;3.67;1.35;;;9.40;99.90;;;;;;4943506;28;20054;-62
2024/03/24 10:49:00;;;;;;;5.93;1.40;;;9.50;99.90;;;;;;4947365;28;20039;-62
2024/03/24 10:51:31;;;;;;;7.13;2.50;;;9.50;99.90;;;;;;4949498;28;20471;-62
2024/03/24 10:54:03;;;;;;;6.10;1.08;;;9.70;99.90;;;;;;4937462;28;20043;-62
2024/03/24 10:56:32;;;;;;;3.33;1.30;;;9.80;99.90;;;;;;4944322;28;20065;-62
2024/03/24 10:58:59;;;;;;;2.90;1.13;;;9.90;99.90;;;;;;4939258;28;20054;-62
2024/03/24 11:01:26;;;;;;;5.15;1.45;;;10.00;99.90;;;;;;4944626;28;20420;-62
2024/03/24 11:03:54;;;;;;;5.93;1.42;;;10.20;99.90;;;;;;4940076;28;20058;-62
2024/03/24 11:06:20;;;;;;;5.07;1.17;;;10.20;99.90;;;;;;4940712;28;20051;-65
2024/03/24 11:08:46;;;;;;;3.10;1.00;;;10.30;99.90;;;;;;4956962;28;20050;-65
2024/03/24 11:11:12;;;;;;;5.60;1.60;;;10.20;99.90;;;;;;4944218;28;20106;-65
2024/03/24 11:13:38;;;;;;;2.72;1.13;;;10.40;99.90;;;;;;4940640;28;20051;-64
2024/03/24 11:16:06;;;;;;;4.18;1.20;;;10.70;99.90;;;;;;4945304;28;20063;-65
2024/03/24 11:18:32;;;;;;;4.47;1.00;;;10.90;99.90;;;;;;4942510;28;20062;-64
2024/03/24 11:21:01;;;;;;;6.35;1.52;;;11.00;99.90;;;;;;4943605;28;20074;-64
2024/03/24 11:23:35;;;;;;;2.47;1.20;;;11.00;99.90;;;;;;4939720;28;20423;-65
2024/03/24 11:26:03;;;;;;;6.10;1.45;;;10.80;99.90;;;;;;4941809;28;20065;-65
2024/03/24 11:28:52;;;;;;;1.92;0.82;;;10.60;99.90;;;;;;4945962;28;20050;-65
2024/03/24 11:31:21;;;;;;;3.47;0.98;;;10.40;99.90;;;;;;4938916;28;20050;-64
2024/03/24 11:34:05;;;;;;;2.20;1.73;;;10.10;99.90;;;;;;4939010;28;20043;-65
2024/03/24 11:36:34;;;;;;;3.70;1.15;;;10.00;99.90;;;;;;4942016;28;20047;-65
2024/03/24 11:39:02;;;;;;;2.67;1.10;;;9.90;99.90;;;;;;4946460;28;20059;-64
2024/03/24 11:41:28;;;;;;;5.05;1.88;;;10.00;99.90;;;;;;4958083;28;20567;-64
2024/03/24 11:44:01;;;;;;;4.47;1.10;;;10.00;99.90;;;;;;4941607;28;20512;-62
2024/03/24 11:46:28;;;;;;;3.30;1.05;;;10.00;99.90;;;;;;4940719;28;20437;-62
2024/03/24 11:48:56;;;;;;;2.33;1.10;;;9.80;99.90;;;;;;4944451;28;20098;-62
2024/03/24 11:51:25;;;;;;;5.60;0.98;;;9.80;99.90;;;;;;4938898;28;20051;-61
2024/03/24 11:53:55;;;;;;;4.88;1.15;;;9.90;99.90;;;;;;4950544;28;20046;-61
2024/03/24 11:56:22;;;;;;;4.72;1.10;;;10.10;99.90;;;;;;4948233;28;20103;-62
2024/03/24 11:58:50;;;;;;;2.75;1.17;;;10.40;99.90;;;;;;4940254;28;20065;-62
2024/03/24 12:01:17;;;;;;;1.58;1.08;;;10.70;99.90;;;;;;4941366;28;20059;-61
2024/03/24 12:03:43;;;;;;;3.70;1.00;;;10.50;99.90;;;;;;4943132;28;20047;-62
2024/03/24 12:06:15;;;;;;;3.67;1.17;;;10.40;99.90;;;;;;4941227;28;20162;-62
2024/03/24 12:08:42;;;;;;;3.35;1.13;;;10.70;99.90;;;;;;4945572;28;20055;-61
2024/03/24 12:11:08;;;;;;;1.90;1.00;;;10.80;99.90;;;;;;4941057;28;20063;-62
2024/03/24 12:13:38;;;;;;;4.60;1.05;;;11.00;99.90;;;;;;4940232;28;20126;-62
2024/03/24 12:16:04;;;;;;;4.38;1.02;;;11.00;99.90;;;;;;4936352;28;20051;-61
2024/03/24 12:18:30;;;;;;;4.07;1.35;;;10.80;99.90;;;;;;4943139;28;20051;-60
2024/03/24 12:21:00;;;;;;;3.50;1.17;;;10.60;99.90;;;;;;4939608;28;20621;-62
2024/03/24 12:23:26;;;;;;;2.13;1.15;;;10.60;99.90;;;;;;4939055;28;20055;-62
2024/03/24 12:25:55;;;;;;;2.30;0.90;;;10.60;99.90;;;;;;4941078;28;20054;-62
2024/03/24 12:28:21;;;;;;;2.90;0.73;;;10.90;99.90;;;;;;4939881;28;20047;-62
2024/03/24 12:30:56;;;;;;;1.50;0.73;;;11.00;99.90;;;;;;4939721;28;20478;-62
2024/03/24 12:33:24;;;;;;;2.30;0.80;;;11.20;99.90;;;;;;4942480;28;20066;-62
2024/03/24 12:35:52;;;;;;;0.80;0.68;;;10.90;99.90;;;;;;4938011;28;20043;-62
2024/03/24 12:38:18;;;;;;;3.15;0.80;;;10.80;99.90;;;;;;4936547;28;20051;-62
2024/03/24 12:40:55;;;;;;;3.88;1.38;;;10.80;99.90;;;;;;4943233;28;20059;-61
2024/03/24 12:43:28;;;;;;;2.58;0.88;;;10.90;99.90;;;;;;4939994;28;20055;-62
2024/03/24 12:45:56;;;;;;;5.55;1.13;;;11.00;99.90;;;;;;4941845;28;20054;-61
2024/03/24 12:48:28;;;;;;;6.25;1.60;;;11.10;99.90;;;;;;4943726;29;20050;-62
2024/03/24 12:50:56;;;;;;;1.05;0.90;;;10.90;99.90;;;;;;4944866;28;20610;-61
2024/03/24 12:53:44;;;;;;;2.40;0.60;;;10.60;99.90;;;;;;4943810;29;20188;-62